createdAt,value
2018-06-27T00:02:13.692Z,72.00
2018-06-27T00:04:42.646Z,72.00
2018-06-27T00:07:11.572Z,72.10
2018-06-27T00:09:40.612Z,71.80
2018-06-27T00:12:09.625Z,71.80
2018-06-27T00:14:38.358Z,72.10
2018-06-27T00:17:12.992Z,72.00
2018-06-27T00:19:41.660Z,72.00
2018-06-27T00:22:11.547Z,72.20
2018-06-27T00:24:40.365Z,72.20
2018-06-27T00:27:09.322Z,72.40
2018-06-27T00:29:38.276Z,72.40
2018-06-27T00:32:07.032Z,72.50
2018-06-27T00:34:35.791Z,72.50
2018-06-27T00:37:04.745Z,72.30
2018-06-27T00:39:33.668Z,72.30
2018-06-27T00:42:02.604Z,72.60
2018-06-27T00:44:31.676Z,72.70
2018-06-27T00:47:00.493Z,72.60
2018-06-27T00:49:29.319Z,72.60
2018-06-27T00:51:58.612Z,72.80
2018-06-27T00:54:27.677Z,72.70
2018-06-27T00:56:56.570Z,72.60
2018-06-27T00:59:25.497Z,72.90
2018-06-27T01:01:54.453Z,72.90
2018-06-27T01:04:23.282Z,72.90
2018-06-27T01:06:52.393Z,73.00
2018-06-27T01:09:21.483Z,73.00
2018-06-27T01:11:50.575Z,73.20
2018-06-27T01:14:19.668Z,73.20
2018-06-27T01:16:48.958Z,72.90
2018-06-27T01:19:18.061Z,73.00
2018-06-27T01:21:47.360Z,73.10
2018-06-27T01:24:16.330Z,73.40
2018-06-27T01:26:45.450Z,73.40
2018-06-27T01:29:14.562Z,73.30
2018-06-27T01:31:43.521Z,73.10
2018-06-27T01:34:12.547Z,73.20
2018-06-27T01:36:41.278Z,73.30
2018-06-27T01:39:11.199Z,73.50
2018-06-27T01:41:39.904Z,73.80
2018-06-27T01:44:08.968Z,73.80
2018-06-27T01:46:37.892Z,73.70
2018-06-27T01:49:06.967Z,73.40
2018-06-27T01:51:36.195Z,73.40
2018-06-27T01:54:04.969Z,73.70
2018-06-27T01:56:33.825Z,73.80
2018-06-27T01:59:02.645Z,73.90
2018-06-27T02:01:31.562Z,74.00
2018-06-27T02:04:01.288Z,74.00
2018-06-27T02:06:30.149Z,74.00
2018-06-27T02:08:58.753Z,74.10
2018-06-27T02:11:27.694Z,74.10
2018-06-27T02:13:56.489Z,74.00
2018-06-27T02:16:25.440Z,74.10
2018-06-27T02:19:01.952Z,74.00
2018-06-27T02:21:31.073Z,74.20
2018-06-27T02:23:59.829Z,74.10
2018-06-27T02:26:28.884Z,74.30
2018-06-27T02:28:57.745Z,74.40
2018-06-27T02:31:26.601Z,74.40
2018-06-27T02:33:55.516Z,74.50
2018-06-27T02:36:24.395Z,74.50
2018-06-27T02:38:53.604Z,74.40
2018-06-27T02:41:22.600Z,74.40
2018-06-27T02:43:51.442Z,74.30
2018-06-27T02:46:24.636Z,74.60
2018-06-27T02:48:53.743Z,74.50
2018-06-27T02:51:23.216Z,74.50
2018-06-27T02:53:52.214Z,74.60
2018-06-27T02:56:21.151Z,74.80
2018-06-27T02:58:50.069Z,74.50
2018-06-27T03:01:19.036Z,74.50
2018-06-27T03:03:47.820Z,74.60
2018-06-27T03:06:16.768Z,74.80
2018-06-27T03:08:45.680Z,74.70
2018-06-27T03:11:14.755Z,74.90
2018-06-27T03:13:43.842Z,74.70
2018-06-27T03:16:12.814Z,74.90
2018-06-27T03:18:50.145Z,74.90
2018-06-27T03:21:19.384Z,74.90
2018-06-27T03:23:48.429Z,75.00
2018-06-27T03:26:17.370Z,75.00
2018-06-27T03:28:46.569Z,75.00
2018-06-27T03:31:15.451Z,75.20
2018-06-27T03:33:44.430Z,75.00
2018-06-27T03:36:13.757Z,75.00
2018-06-27T03:38:42.711Z,75.10
2018-06-27T03:41:11.452Z,75.00
2018-06-27T03:43:40.673Z,75.20
2018-06-27T03:46:09.477Z,75.20
2018-06-27T03:51:07.705Z,75.20
2018-06-27T03:53:43.076Z,75.00
2018-06-27T03:56:12.876Z,75.00
2018-06-27T03:58:42.214Z,75.40
2018-06-27T04:01:11.433Z,75.40
2018-06-27T04:03:41.308Z,75.20
2018-06-27T04:06:11.448Z,74.90
2018-06-27T04:08:40.218Z,75.10
2018-06-27T04:11:09.245Z,75.20
2018-06-27T04:13:38.416Z,75.20
2018-06-27T04:16:07.067Z,75.50
2018-06-27T04:18:36.197Z,75.60
2018-06-27T04:21:05.189Z,75.70
2018-06-27T04:23:34.169Z,75.50
2018-06-27T04:26:03.150Z,75.40
2018-06-27T04:28:34.249Z,75.40
2018-06-27T04:33:31.412Z,76.30
2018-06-27T04:36:00.411Z,76.50
2018-06-27T04:38:29.407Z,75.80
2018-06-27T04:40:58.195Z,75.60
2018-06-27T04:43:26.952Z,76.30
2018-06-27T04:45:55.980Z,75.80
2018-06-27T04:48:24.701Z,75.90
2018-06-27T04:50:53.896Z,76.00
2018-06-27T04:53:22.716Z,76.30
2018-06-27T04:55:51.643Z,76.30
2018-06-27T04:58:20.522Z,76.00
2018-06-27T05:00:50.124Z,76.80
2018-06-27T05:03:19.033Z,76.80
2018-06-27T05:05:48.111Z,77.70
2018-06-27T05:08:17.021Z,78.40
2018-06-27T05:10:46.097Z,78.50
2018-06-27T05:15:43.647Z,78.60
2018-06-27T05:18:12.582Z,79.00
2018-06-27T05:20:41.501Z,78.80
2018-06-27T05:23:10.697Z,79.20
2018-06-27T05:25:39.788Z,79.40
2018-06-27T05:28:12.732Z,78.50
2018-06-27T05:30:47.367Z,78.30
2018-06-27T05:33:16.883Z,80.10
2018-06-27T05:38:19.138Z,79.30
2018-06-27T05:40:48.013Z,79.80
2018-06-27T05:43:16.792Z,80.60
2018-06-27T05:45:45.607Z,79.60
2018-06-27T05:48:14.406Z,80.30
2018-06-27T05:50:43.528Z,80.80
2018-06-27T05:53:12.544Z,80.20
2018-06-27T05:55:41.868Z,80.60
2018-06-27T05:58:10.768Z,80.90
2018-06-27T06:00:39.797Z,80.60
2018-06-27T06:03:09.830Z,81.10
2018-06-27T06:05:38.840Z,81.30
2018-06-27T06:08:07.866Z,81.60
2018-06-27T06:10:36.957Z,81.70
2018-06-27T06:13:06.376Z,81.20
2018-06-27T06:15:35.707Z,80.50
2018-06-27T06:18:04.877Z,80.80
2018-06-27T06:20:33.864Z,81.00
2018-06-27T06:23:02.854Z,81.00
2018-06-27T06:25:31.760Z,81.50
2018-06-27T06:28:00.801Z,81.10
2018-06-27T06:30:29.729Z,80.00
2018-06-27T06:32:58.622Z,80.00
2018-06-27T06:35:27.631Z,81.10
2018-06-27T06:37:56.464Z,81.30
2018-06-27T06:40:25.309Z,80.60
2018-06-27T06:42:54.078Z,81.40
2018-06-27T06:45:22.971Z,80.00
2018-06-27T06:47:52.120Z,81.50
2018-06-27T06:50:21.022Z,81.90
2018-06-27T06:52:57.069Z,80.20
2018-06-27T06:57:54.063Z,78.80
2018-06-27T07:00:22.980Z,79.70
2018-06-27T07:02:51.869Z,79.70
2018-06-27T07:05:20.798Z,78.20
2018-06-27T07:07:49.550Z,79.50
2018-06-27T07:10:18.381Z,78.10
2018-06-27T07:15:15.648Z,79.20
2018-06-27T07:17:44.806Z,80.80
2018-06-27T07:20:13.717Z,78.30
2018-06-27T07:22:43.982Z,77.50
2018-06-27T07:25:12.934Z,77.40
2018-06-27T07:27:41.905Z,77.70
2018-06-27T07:30:10.914Z,78.20
2018-06-27T07:32:39.807Z,77.50
2018-06-27T07:35:08.794Z,77.10
2018-06-27T07:37:37.909Z,77.20
2018-06-27T07:40:06.770Z,77.80
2018-06-27T07:42:35.665Z,77.90
2018-06-27T07:45:04.936Z,75.40
2018-06-27T07:47:33.669Z,77.20
2018-06-27T07:50:02.671Z,75.70
2018-06-27T07:52:31.959Z,76.80
2018-06-27T07:55:01.075Z,75.30
2018-06-27T07:57:30.505Z,74.40
2018-06-27T07:59:59.460Z,75.10
2018-06-27T08:02:28.354Z,76.30
2018-06-27T08:04:57.139Z,74.10
2018-06-27T08:07:26.060Z,75.40
2018-06-27T08:09:54.926Z,73.80
2018-06-27T08:12:23.864Z,72.50
2018-06-27T08:14:52.594Z,72.40
2018-06-27T08:17:21.591Z,74.50
2018-06-27T08:19:50.352Z,72.30
2018-06-27T08:22:19.309Z,73.70
2018-06-27T08:24:48.362Z,71.80
2018-06-27T08:27:17.393Z,71.40
2018-06-27T08:29:46.223Z,68.10
2018-06-27T08:32:15.243Z,67.70
2018-06-27T08:34:44.046Z,68.40
2018-06-27T08:37:13.106Z,68.40
2018-06-27T08:39:42.027Z,71.80
2018-06-27T08:42:10.783Z,68.80
2018-06-27T08:44:39.707Z,65.40
2018-06-27T08:47:09.616Z,69.00
2018-06-27T08:49:38.443Z,65.40
2018-06-27T08:54:44.505Z,68.80
2018-06-27T08:59:41.830Z,64.90
2018-06-27T09:02:10.896Z,62.20
2018-06-27T09:04:41.784Z,64.70
2018-06-27T09:07:10.889Z,64.30
2018-06-27T09:09:40.007Z,62.90
2018-06-27T09:12:08.939Z,63.80
2018-06-27T09:14:37.903Z,64.30
2018-06-27T09:17:06.843Z,61.70
2018-06-27T09:19:38.061Z,61.70
2018-06-27T09:22:15.319Z,62.90
2018-06-27T09:24:44.190Z,62.80
2018-06-27T09:27:13.152Z,63.50
2018-06-27T09:29:42.577Z,61.90
2018-06-27T09:32:11.722Z,59.20
2018-06-27T09:34:41.907Z,59.10
2018-06-27T09:37:16.887Z,61.50
2018-06-27T09:39:45.754Z,61.80
2018-06-27T09:42:18.308Z,59.90
2018-06-27T09:44:47.197Z,59.60
2018-06-27T09:47:16.120Z,58.70
2018-06-27T09:49:44.863Z,56.10
2018-06-27T09:52:13.787Z,57.40
2018-06-27T09:54:42.993Z,55.80
2018-06-27T09:57:13.576Z,55.70
2018-06-27T09:59:43.063Z,53.60
2018-06-27T10:02:12.709Z,53.80
2018-06-27T10:04:41.820Z,52.60
2018-06-27T10:07:10.865Z,52.10
2018-06-27T10:09:39.774Z,52.90
2018-06-27T10:12:08.864Z,53.80
2018-06-27T10:14:37.562Z,54.70
2018-06-27T10:17:06.547Z,53.70
2018-06-27T10:19:35.481Z,54.60
2018-06-27T10:22:04.496Z,53.60
2018-06-27T10:24:33.375Z,51.30
2018-06-27T10:27:08.080Z,52.90
2018-06-27T10:29:37.064Z,53.90
2018-06-27T10:32:06.154Z,51.70
2018-06-27T10:34:34.886Z,52.50
2018-06-27T10:37:03.461Z,51.60
2018-06-27T10:42:00.233Z,52.50
2018-06-27T10:44:39.247Z,52.30
2018-06-27T10:47:07.788Z,51.20
2018-06-27T10:49:36.335Z,51.70
2018-06-27T10:52:05.096Z,50.70
2018-06-27T10:54:38.119Z,51.40
2018-06-27T10:57:07.712Z,51.80
2018-06-27T10:59:36.556Z,51.70
2018-06-27T11:02:05.556Z,51.20
2018-06-27T11:04:34.439Z,48.40
2018-06-27T11:07:13.710Z,48.90
2018-06-27T11:09:42.475Z,50.00
2018-06-27T11:12:11.373Z,50.10
2018-06-27T11:14:40.349Z,49.70
2018-06-27T11:17:09.434Z,48.90
2018-06-27T11:19:38.743Z,49.10
2018-06-27T11:22:07.575Z,49.10
2018-06-27T11:24:36.397Z,50.00
2018-06-27T11:27:05.438Z,49.30
2018-06-27T11:29:34.307Z,50.20
2018-06-27T11:32:03.183Z,49.30
2018-06-27T11:34:32.121Z,47.20
2018-06-27T11:37:00.788Z,46.10
2018-06-27T11:39:29.963Z,45.50
2018-06-27T11:41:58.881Z,46.20
2018-06-27T11:44:27.557Z,47.50
2018-06-27T11:46:56.321Z,45.80
2018-06-27T11:49:24.878Z,45.60
2018-06-27T11:51:53.434Z,46.40
2018-06-27T11:54:22.052Z,46.80
2018-06-27T11:56:50.714Z,47.20
2018-06-27T11:59:19.465Z,48.10
2018-06-27T12:01:48.439Z,48.10
2018-06-27T12:04:17.708Z,47.40
2018-06-27T12:06:52.372Z,47.80
2018-06-27T12:09:21.285Z,46.70
2018-06-27T12:11:50.211Z,47.30
2018-06-27T12:14:18.955Z,46.50
2018-06-27T12:16:48.099Z,46.60
2018-06-27T12:19:17.032Z,46.90
2018-06-27T12:21:45.903Z,45.10
2018-06-27T12:24:14.978Z,45.40
2018-06-27T12:26:43.804Z,46.40
2018-06-27T12:29:12.820Z,46.30
2018-06-27T12:31:41.596Z,45.90
2018-06-27T12:34:10.401Z,46.70
2018-06-27T12:36:39.274Z,46.70
2018-06-27T12:39:09.058Z,47.60
2018-06-27T12:41:38.203Z,45.50
2018-06-27T12:44:06.933Z,45.20
2018-06-27T12:46:36.189Z,45.60
2018-06-27T12:49:05.422Z,44.40
2018-06-27T12:54:02.213Z,44.90
2018-06-27T12:56:31.179Z,44.20
2018-06-27T12:59:00.257Z,44.60
2018-06-27T13:01:29.161Z,44.80
2018-06-27T13:03:58.201Z,42.40
2018-06-27T13:06:27.037Z,44.10
2018-06-27T13:08:55.789Z,43.40
2018-06-27T13:11:24.670Z,42.80
2018-06-27T13:13:53.679Z,44.60
2018-06-27T13:16:22.816Z,44.00
2018-06-27T13:18:51.649Z,44.20
2018-06-27T13:21:20.684Z,44.60
2018-06-27T13:23:49.301Z,45.10
2018-06-27T13:26:17.880Z,43.20
2018-06-27T13:28:46.548Z,44.50
2018-06-27T13:33:43.131Z,43.60
2018-06-27T13:36:11.808Z,44.00
2018-06-27T13:38:40.526Z,44.20
2018-06-27T13:41:09.173Z,43.50
2018-06-27T13:43:37.908Z,43.30
2018-06-27T13:46:06.614Z,44.10
2018-06-27T13:48:35.360Z,44.10
2018-06-27T13:51:04.038Z,44.50
2018-06-27T13:53:32.797Z,44.60
2018-06-27T13:56:01.370Z,43.90
2018-06-27T13:58:30.169Z,44.40
2018-06-27T14:00:58.703Z,43.40
2018-06-27T14:03:27.313Z,43.20
2018-06-27T14:05:55.945Z,44.20
2018-06-27T14:08:45.927Z,45.40
2018-06-27T14:11:30.594Z,44.70
2018-06-27T14:14:02.352Z,43.90
2018-06-27T14:16:30.967Z,46.20
2018-06-27T14:19:00.635Z,46.30
2018-06-27T14:23:57.372Z,46.10
2018-06-27T14:26:26.023Z,46.90
2018-06-27T14:28:59.032Z,47.20
2018-06-27T14:31:37.641Z,46.20
2018-06-27T14:34:09.516Z,47.20
2018-06-27T14:39:16.425Z,45.70
2018-06-27T14:41:45.413Z,43.60
2018-06-27T14:44:14.258Z,46.90
2018-06-27T14:46:43.343Z,46.40
2018-06-27T14:49:12.454Z,46.10
2018-06-27T14:51:41.455Z,46.20
2018-06-27T14:54:10.647Z,43.40
2018-06-27T14:56:45.594Z,45.80
2018-06-27T14:59:15.500Z,45.70
2018-06-27T15:01:44.613Z,44.80
2018-06-27T15:04:13.329Z,45.10
2018-06-27T15:06:42.099Z,45.30
2018-06-27T15:09:11.319Z,44.50
2018-06-27T15:11:40.048Z,43.30
2018-06-27T15:14:09.177Z,42.90
2018-06-27T15:16:37.994Z,43.20
2018-06-27T15:19:07.083Z,44.70
2018-06-27T15:21:35.946Z,44.40
2018-06-27T15:24:05.167Z,43.90
2018-06-27T15:29:02.824Z,43.90
2018-06-27T15:31:31.623Z,44.10
2018-06-27T15:34:07.203Z,43.80
2018-06-27T15:36:36.031Z,43.50
2018-06-27T15:39:08.197Z,43.50
2018-06-27T15:41:50.518Z,42.20
2018-06-27T15:44:19.756Z,43.60
2018-06-27T15:49:21.050Z,44.60
2018-06-27T15:51:50.077Z,43.30
2018-06-27T15:54:18.776Z,43.30
2018-06-27T15:56:47.667Z,44.10
2018-06-27T15:59:16.842Z,42.90
2018-06-27T16:01:45.654Z,43.10
2018-06-27T16:04:14.441Z,43.90
2018-06-27T16:06:43.311Z,44.00
2018-06-27T16:09:12.381Z,43.60
2018-06-27T16:11:45.404Z,43.70
2018-06-27T16:14:32.947Z,43.20
2018-06-27T16:17:02.079Z,43.50
2018-06-27T16:19:41.218Z,43.80
2018-06-27T16:22:16.444Z,45.00
2018-06-27T16:24:55.974Z,46.00
2018-06-27T16:27:29.218Z,47.00
2018-06-27T16:30:00.521Z,47.40
2018-06-27T16:32:30.592Z,47.10
2018-06-27T16:34:59.838Z,46.60
2018-06-27T16:43:16.086Z,46.00
2018-06-27T16:45:45.358Z,46.60
2018-06-27T16:48:25.255Z,45.90
2018-06-27T16:50:54.394Z,45.80
2018-06-27T16:53:29.769Z,45.60
2018-06-27T16:55:58.556Z,45.60
2018-06-27T16:58:34.651Z,44.70
2018-06-27T17:01:07.578Z,45.30
2018-06-27T17:03:36.556Z,44.30
2018-06-27T17:06:05.676Z,44.80
2018-06-27T17:08:38.102Z,44.10
2018-06-27T17:11:11.243Z,44.10
2018-06-27T17:16:23.576Z,45.20
2018-06-27T17:18:52.670Z,45.60
2018-06-27T17:21:26.982Z,45.90
2018-06-27T17:24:09.235Z,46.50
2018-06-27T17:26:40.276Z,46.60
2018-06-27T17:29:11.333Z,46.90
2018-06-27T17:31:40.382Z,46.90
2018-06-27T17:34:09.686Z,46.90
2018-06-27T17:36:38.893Z,47.00
2018-06-27T17:39:26.369Z,47.40
2018-06-27T17:41:55.901Z,49.20
2018-06-27T17:44:25.203Z,48.20
2018-06-27T17:46:54.315Z,48.40
2018-06-27T17:49:31.376Z,48.20
2018-06-27T17:52:07.177Z,48.70
2018-06-27T17:54:38.429Z,49.10
2018-06-27T17:57:12.187Z,48.50
2018-06-27T17:59:42.568Z,48.50
2018-06-27T18:02:11.777Z,49.00
2018-06-27T18:04:43.164Z,49.10
2018-06-27T18:07:12.467Z,49.40
2018-06-27T18:09:42.337Z,49.50
2018-06-27T18:12:11.534Z,49.10
2018-06-27T18:14:40.423Z,49.30
2018-06-27T18:17:10.740Z,49.30
2018-06-27T18:19:41.913Z,49.50
2018-06-27T18:22:11.233Z,49.60
2018-06-27T18:24:40.326Z,50.00
2018-06-27T18:27:09.567Z,50.10
2018-06-27T18:29:38.687Z,50.20
2018-06-27T18:32:07.840Z,50.40
2018-06-27T18:34:37.030Z,50.40
2018-06-27T18:37:06.094Z,50.60
2018-06-27T18:39:35.513Z,50.80
2018-06-27T18:42:08.200Z,51.30
2018-06-27T18:47:05.951Z,52.30
2018-06-27T18:49:35.515Z,52.40
2018-06-27T18:52:04.841Z,52.70
2018-06-27T18:54:34.311Z,52.50
2018-06-27T18:57:03.508Z,52.60
2018-06-27T18:59:44.741Z,53.00
2018-06-27T19:02:14.203Z,53.30
2018-06-27T19:04:43.129Z,53.20
2018-06-27T19:07:12.323Z,53.40
2018-06-27T19:09:44.929Z,54.20
2018-06-27T19:12:17.936Z,54.20
2018-06-27T19:14:48.882Z,55.10
2018-06-27T19:17:18.298Z,55.10
2018-06-27T19:19:47.770Z,55.40
2018-06-27T19:22:16.858Z,55.40
2018-06-27T19:24:46.205Z,56.60
2018-06-27T19:27:15.386Z,57.20
2018-06-27T19:29:48.411Z,57.30
2018-06-27T19:32:21.511Z,57.50
2018-06-27T19:34:50.312Z,57.10
2018-06-27T19:37:20.279Z,57.30
2018-06-27T19:39:49.498Z,58.00
2018-06-27T19:42:18.672Z,58.10
2018-06-27T19:44:49.178Z,59.10
2018-06-27T19:47:19.084Z,59.20
2018-06-27T19:49:49.566Z,58.60
2018-06-27T19:52:18.718Z,58.90
2018-06-27T19:54:48.289Z,59.20
2018-06-27T19:57:17.725Z,58.80
2018-06-27T19:59:47.191Z,60.00
2018-06-27T20:02:19.450Z,60.00
2018-06-27T20:04:49.629Z,60.30
2018-06-27T20:07:19.223Z,60.00
2018-06-27T20:09:48.680Z,60.40
2018-06-27T20:12:27.840Z,60.40
2018-06-27T20:14:57.388Z,60.30
2018-06-27T20:17:26.476Z,61.40
2018-06-27T20:19:55.617Z,61.50
2018-06-27T20:22:25.275Z,61.00
2018-06-27T20:24:54.356Z,61.30
2018-06-27T20:27:24.492Z,61.00
2018-06-27T20:29:53.675Z,61.80
2018-06-27T20:32:26.055Z,61.70
2018-06-27T20:34:55.262Z,61.80
2018-06-27T20:37:24.234Z,62.00
2018-06-27T20:39:53.183Z,62.30
2018-06-27T20:42:22.356Z,62.50
2018-06-27T20:44:51.116Z,62.60
2018-06-27T20:47:20.174Z,62.50
2018-06-27T20:49:49.279Z,63.10
2018-06-27T20:52:18.464Z,63.60
2018-06-27T20:54:47.579Z,63.40
2018-06-27T20:57:17.294Z,63.50
2018-06-27T20:59:46.438Z,63.10
2018-06-27T21:04:44.286Z,63.60
2018-06-27T21:07:13.450Z,63.20
2018-06-27T21:09:44.777Z,64.00
2018-06-27T21:12:13.835Z,63.80
2018-06-27T21:14:42.844Z,64.20
2018-06-27T21:17:13.092Z,64.40
2018-06-27T21:19:42.175Z,64.50
2018-06-27T21:22:11.333Z,65.20
2018-06-27T21:24:40.442Z,64.80
2018-06-27T21:27:09.727Z,65.10
2018-06-27T21:29:39.957Z,64.80
2018-06-27T21:32:09.046Z,65.00
2018-06-27T21:34:38.314Z,65.20
2018-06-27T21:37:07.528Z,65.10
2018-06-27T21:39:36.964Z,65.20
2018-06-27T21:42:07.446Z,65.40
2018-06-27T21:44:36.550Z,65.30
2018-06-27T21:47:05.720Z,65.40
2018-06-27T21:49:34.812Z,65.50
2018-06-27T21:52:03.763Z,65.80
2018-06-27T21:54:32.777Z,66.00
2018-06-27T21:57:01.903Z,66.20
2018-06-27T21:59:30.901Z,66.30
2018-06-27T22:02:00.087Z,66.00
2018-06-27T22:04:29.326Z,66.40
2018-06-27T22:06:58.323Z,66.30
2018-06-27T22:09:49.793Z,66.50
2018-06-27T22:12:19.055Z,66.80
2018-06-27T22:14:52.085Z,66.60
2018-06-27T22:17:21.126Z,66.80
2018-06-27T22:19:50.190Z,67.00
2018-06-27T22:22:23.760Z,66.90
2018-06-27T22:24:52.939Z,66.90
2018-06-27T22:27:21.814Z,67.30
2018-06-27T22:29:50.585Z,67.20
2018-06-27T22:32:19.451Z,67.40
2018-06-27T22:34:48.143Z,67.40
2018-06-27T22:37:17.036Z,67.50
2018-06-27T22:39:45.745Z,67.60
2018-06-27T22:42:21.179Z,67.50
2018-06-27T22:44:50.139Z,67.60
2018-06-27T22:47:19.162Z,67.70
2018-06-27T22:49:47.934Z,67.80
2018-06-27T22:52:16.791Z,67.80
2018-06-27T22:54:45.606Z,68.10
2018-06-27T22:57:14.590Z,68.00
2018-06-27T22:59:43.357Z,68.10
2018-06-27T23:02:22.007Z,68.10
2018-06-27T23:04:50.863Z,68.20
2018-06-27T23:07:19.727Z,68.20
2018-06-27T23:09:48.799Z,68.20
2018-06-27T23:12:17.958Z,68.30
2018-06-27T23:14:46.728Z,68.40
2018-06-27T23:17:16.033Z,68.50
2018-06-27T23:19:44.838Z,68.50
2018-06-27T23:22:47.898Z,68.40
2018-06-27T23:25:17.064Z,68.60
2018-06-27T23:30:15.665Z,68.60
2018-06-27T23:32:44.426Z,68.50
2018-06-27T23:35:13.586Z,68.70
2018-06-27T23:37:42.485Z,68.80
2018-06-27T23:40:11.533Z,68.70
2018-06-27T23:42:40.360Z,68.80
2018-06-27T23:45:09.249Z,68.80
2018-06-27T23:47:38.401Z,68.70
2018-06-27T23:50:07.351Z,69.00
2018-06-27T23:52:36.391Z,69.10
2018-06-27T23:55:05.610Z,69.10
2018-06-27T23:57:34.386Z,69.20
